Terminal Aerodrome Forecast
Issued by NWS

Home | Current Version | Previous Version | Graphics & Text | Print | Product List | Glossary On
Versions: 1 2 3 4 5 6 7 8 9 10 11 12 13 14 15 16
000
FTUS43 KTOP 182320
TAFMHK
TAF
KMHK 182320Z 1900/1924 19018G29KT P6SM BKN022 WS014/20050KT
     FM190500 19016G20KT P6SM BKN009 WS014/21055KT
     FM190900 22015KT P6SM -DZ BKN008 WS014/22055KT
     FM191300 35008KT P6SM BKN015=

USA.gov is the U.S. government's official web portal to all federal, state and local government web resources and services.